sensor_id;sensor_type;location;lat;lon;timestamp;pressure;altitude;pressure_sealevel;temperature;humidity
68199;BME280;55021;51.554;17.044;2023-07-31T00:14:09;100175.38;;;17.16;83.04
68199;BME280;55021;51.554;17.044;2023-07-31T00:29:11;100192.88;;;17.48;82.64
68199;BME280;55021;51.554;17.044;2023-07-31T00:44:13;100241.13;;;17.55;83.74
68199;BME280;55021;51.554;17.044;2023-07-31T00:59:19;100172.63;;;16.76;83.53
68199;BME280;55021;51.554;17.044;2023-07-31T01:14:21;100233.09;;;16.88;86.02
68199;BME280;55021;51.554;17.044;2023-07-31T01:29:36;100238.16;;;16.78;86.64
68199;BME280;55021;51.554;17.044;2023-07-31T01:44:40;100239.16;;;16.10;88.51
68199;BME280;55021;51.554;17.044;2023-07-31T01:59:43;100247.38;;;16.70;86.02
68199;BME280;55021;51.554;17.044;2023-07-31T02:14:45;100237.31;;;16.24;86.32
68199;BME280;55021;51.554;17.044;2023-07-31T02:29:47;100206.50;;;15.33;88.46
68199;BME280;55021;51.554;17.044;2023-07-31T02:44:50;100237.69;;;16.14;85.96
68199;BME280;55021;51.554;17.044;2023-07-31T02:59:52;100223.69;;;15.83;86.28
68199;BME280;55021;51.554;17.044;2023-07-31T03:14:54;100208.63;;;15.10;89.71
68199;BME280;55021;51.554;17.044;2023-07-31T03:29:57;100242.47;;;16.05;86.20
68199;BME280;55021;51.554;17.044;2023-07-31T03:44:59;100248.72;;;16.34;84.28
68199;BME280;55021;51.554;17.044;2023-07-31T04:00:01;100230.13;;;16.16;85.16
68199;BME280;55021;51.554;17.044;2023-07-31T04:15:04;100231.22;;;16.89;82.62
68199;BME280;55021;51.554;17.044;2023-07-31T04:30:08;100237.91;;;16.66;83.75
68199;BME280;55021;51.554;17.044;2023-07-31T04:45:11;100236.00;;;16.73;82.43
68199;BME280;55021;51.554;17.044;2023-07-31T05:00:13;100244.47;;;16.98;81.67
68199;BME280;55021;51.554;17.044;2023-07-31T05:15:16;100242.19;;;17.41;79.87
68199;BME280;55021;51.554;17.044;2023-07-31T05:30:18;100222.16;;;17.60;76.41
68199;BME280;55021;51.554;17.044;2023-07-31T05:45:20;100235.41;;;18.47;74.12
68199;BME280;55021;51.554;17.044;2023-07-31T06:00:23;100232.72;;;18.72;73.18
68199;BME280;55021;51.554;17.044;2023-07-31T06:15:25;100212.78;;;19.39;69.08
68199;BME280;55021;51.554;17.044;2023-07-31T06:30:27;100221.50;;;19.79;68.98
68199;BME280;55021;51.554;17.044;2023-07-31T06:45:30;100198.91;;;19.52;68.52
68199;BME280;55021;51.554;17.044;2023-07-31T07:00:32;100208.06;;;20.07;67.03
68199;BME280;55021;51.554;17.044;2023-07-31T07:15:35;100212.97;;;20.82;64.14
68199;BME280;55021;51.554;17.044;2023-07-31T07:30:37;100192.03;;;21.81;59.51
68199;BME280;55021;51.554;17.044;2023-07-31T07:45:40;100189.88;;;22.23;59.07
68199;BME280;55021;51.554;17.044;2023-07-31T08:00:48;100197.19;;;21.66;58.45
68199;BME280;55021;51.554;17.044;2023-07-31T08:15:51;100176.56;;;22.59;55.19
68199;BME280;55021;51.554;17.044;2023-07-31T08:30:53;100222.28;;;21.76;57.24
68199;BME280;55021;51.554;17.044;2023-07-31T08:45:56;100209.50;;;21.98;58.54
68199;BME280;55021;51.554;17.044;2023-07-31T09:00:59;100208.72;;;20.39;65.63
68199;BME280;55021;51.554;17.044;2023-07-31T09:16:03;100207.41;;;20.71;63.95
68199;BME280;55021;51.554;17.044;2023-07-31T09:31:05;100213.88;;;19.38;69.06
68199;BME280;55021;51.554;17.044;2023-07-31T09:46:14;100231.16;;;18.89;72.88
68199;BME280;55021;51.554;17.044;2023-07-31T10:01:16;100221.31;;;18.75;78.61
68199;BME280;55021;51.554;17.044;2023-07-31T10:16:20;100198.56;;;18.61;81.83
68199;BME280;55021;51.554;17.044;2023-07-31T10:31:23;100217.72;;;19.30;80.85
68199;BME280;55021;51.554;17.044;2023-07-31T10:46:27;100202.50;;;19.52;80.58
68199;BME280;55021;51.554;17.044;2023-07-31T11:01:49;100193.88;;;19.49;79.09
68199;BME280;55021;51.554;17.044;2023-07-31T11:16:52;100172.94;;;19.48;78.14
68199;BME280;55021;51.554;17.044;2023-07-31T11:31:55;100138.03;;;21.27;70.39
68199;BME280;55021;51.554;17.044;2023-07-31T11:47:00;100115.56;;;22.21;68.10
68199;BME280;55021;51.554;17.044;2023-07-31T12:02:04;100096.09;;;22.89;64.93
68199;BME280;55021;51.554;17.044;2023-07-31T12:17:07;100083.25;;;23.93;61.37
68199;BME280;55021;51.554;17.044;2023-07-31T12:32:25;100050.75;;;24.37;58.60
68199;BME280;55021;51.554;17.044;2023-07-31T12:47:27;100025.28;;;23.65;60.17
68199;BME280;55021;51.554;17.044;2023-07-31T13:02:30;100020.59;;;23.65;56.62
68199;BME280;55021;51.554;17.044;2023-07-31T13:17:33;99995.00;;;23.53;54.77
68199;BME280;55021;51.554;17.044;2023-07-31T13:32:36;99976.50;;;24.39;54.27
68199;BME280;55021;51.554;17.044;2023-07-31T13:47:38;99970.50;;;24.15;53.13
68199;BME280;55021;51.554;17.044;2023-07-31T14:02:40;99968.03;;;23.92;54.32
68199;BME280;55021;51.554;17.044;2023-07-31T14:17:43;99966.22;;;24.66;51.75
68199;BME280;55021;51.554;17.044;2023-07-31T14:32:45;99951.59;;;24.44;53.01
68199;BME280;55021;51.554;17.044;2023-07-31T14:47:48;99929.50;;;25.48;51.24
68199;BME280;55021;51.554;17.044;2023-07-31T15:02:51;99907.94;;;24.56;49.58
68199;BME280;55021;51.554;17.044;2023-07-31T15:17:53;99853.91;;;24.59;47.38
68199;BME280;55021;51.554;17.044;2023-07-31T15:32:55;99893.50;;;24.17;49.30
68199;BME280;55021;51.554;17.044;2023-07-31T15:47:58;99903.19;;;23.13;50.44
68199;BME280;55021;51.554;17.044;2023-07-31T16:03:00;99862.88;;;23.17;51.39
68199;BME280;55021;51.554;17.044;2023-07-31T16:18:03;99882.03;;;24.04;50.55
68199;BME280;55021;51.554;17.044;2023-07-31T16:33:08;99853.72;;;22.95;52.36
68199;BME280;55021;51.554;17.044;2023-07-31T16:48:11;99862.19;;;22.88;51.46
68199;BME280;55021;51.554;17.044;2023-07-31T17:03:14;99855.13;;;22.76;52.95
68199;BME280;55021;51.554;17.044;2023-07-31T17:18:16;99862.28;;;23.15;53.39
68199;BME280;55021;51.554;17.044;2023-07-31T17:33:18;99882.34;;;23.27;54.43
68199;BME280;55021;51.554;17.044;2023-07-31T17:48:26;99880.50;;;22.94;54.96
68199;BME280;55021;51.554;17.044;2023-07-31T18:03:29;99869.59;;;22.44;57.17
68199;BME280;55021;51.554;17.044;2023-07-31T18:18:32;99856.31;;;21.75;59.60
68199;BME280;55021;51.554;17.044;2023-07-31T18:33:34;99845.59;;;21.33;64.63
68199;BME280;55021;51.554;17.044;2023-07-31T18:48:37;99844.28;;;21.64;63.85
68199;BME280;55021;51.554;17.044;2023-07-31T19:03:39;99843.63;;;21.46;64.78
68199;BME280;55021;51.554;17.044;2023-07-31T19:18:43;99795.91;;;21.45;62.96
68199;BME280;55021;51.554;17.044;2023-07-31T19:33:46;99794.47;;;21.42;62.89
68199;BME280;55021;51.554;17.044;2023-07-31T19:48:48;99784.66;;;21.63;61.80
68199;BME280;55021;51.554;17.044;2023-07-31T20:03:50;99777.94;;;21.59;62.42
68199;BME280;55021;51.554;17.044;2023-07-31T20:18:53;99724.25;;;21.33;61.90
68199;BME280;55021;51.554;17.044;2023-07-31T20:33:55;99749.34;;;21.49;62.63
68199;BME280;55021;51.554;17.044;2023-07-31T20:48:57;99742.91;;;21.43;63.16
68199;BME280;55021;51.554;17.044;2023-07-31T21:04:00;99722.09;;;21.35;63.81
68199;BME280;55021;51.554;17.044;2023-07-31T21:19:03;99718.63;;;20.83;63.29
68199;BME280;55021;51.554;17.044;2023-07-31T21:34:05;99705.72;;;21.29;61.54
68199;BME280;55021;51.554;17.044;2023-07-31T21:49:08;99688.81;;;21.09;61.51
68199;BME280;55021;51.554;17.044;2023-07-31T22:04:10;99710.72;;;20.59;62.84
68199;BME280;55021;51.554;17.044;2023-07-31T22:19:12;99682.25;;;21.26;61.04
68199;BME280;55021;51.554;17.044;2023-07-31T22:34:15;99663.59;;;21.33;63.54
68199;BME280;55021;51.554;17.044;2023-07-31T22:49:17;99645.97;;;21.01;65.21
68199;BME280;55021;51.554;17.044;2023-07-31T23:04:20;99636.59;;;21.19;64.24
68199;BME280;55021;51.554;17.044;2023-07-31T23:19:22;99621.25;;;21.06;64.93
68199;BME280;55021;51.554;17.044;2023-07-31T23:34:24;99591.34;;;20.98;65.18
68199;BME280;55021;51.554;17.044;2023-07-31T23:49:27;99575.03;;;21.13;64.60
